Weather at Juniper Airport

Public forecast

Using degrees Celsius for public forecast. Weather courtesy of forecast.io.

Closest aviation weather report (METAR) to Juniper Airport

Closest report is Presque Isle International Airport, 36.9 nm (68.4 km) WNW. Retrieved 2021/05/12 08:38 UTC (18 minutes ago):

KPQI 120838Z AUTO 34010KT 10SM FEW009 SCT013 OVC021 05/04 A2982 RMK AO2 RAE20 PNO

Closest aviation forecast (TAF) to Juniper Airport

Closest forecast is Presque Isle International Airport, 36.9 nm (68.4 km) WNW. Retrieved 2021/05/12 06:21 UTC (3 hours ago):

TAF KPQI 120520Z 1206/1306 04007KT 6SM -RA SCT008 OVC035 FM121000 34008KT P6SM VCSH BKN035 FM121200 01007KT P6SM BKN020 FM121500 34012G20KT P6SM VCSH BKN040 FM130000 33005KT P6SM SCT060